Weather at Airbus Helicopter Heliport [CLOSED]

Public forecast

Using degrees Fahrenheit for public forecast. Weather courtesy of forecast.io.

Closest aviation weather report (METAR) to Airbus Helicopter Heliport

Report is more than 6 hours old.

Closest report is Grand Prairie Municipal Airport, 0.2 nm (0.4 km) SSE.

2024/05/28 23:50 (retrieved 1 day ago)

KGPM 292350Z 14006KT 10SM SKC 29/17 A2999

Closest aviation forecast (TAF) to Airbus Helicopter Heliport

Forecast is more than 6 hours old.

Closest forecast is NAS Fort Worth JRB / Carswell Field, 20.3 nm (37.6 km) WNW.

2024/05/29 13:33 Ammendment (retrieved 12 hours ago)

AMD KNFW 2913/3007 VRB06KT 9999 FEW030 SCT120 BKN250 QNH3002INS BECMG 2920/2922 15012G18KT 9999 VCTS SCT045CB BKN250 QNH2998INS BECMG 3003/3005 13008KT 9999 NSW BKN030 BKN060 QNH2996INS TX30/2922Z TN22/2913Z AMD 1330 FN20046